Flight Track Log - Related Links

Times and Time Zones

All times are in EDT time to prevent confusion due to time zone crossing. See the CSN6179 flight status page for this flight to view local times or setup timezone preferences in your user account.


Time Position Orientation Groundspeed Altitude Reporting Facility
EDT Latitude Longitude Course Direction KTS MPH feet Rate Location/Type
Thu 08:28:00 AM 43.6396 124.5070 242° Southwest  Level Estimated
Thu 08:29:00 AM 43.5947 124.3926 242° Southwest  Level Estimated
Thu 08:30:00 AM 43.5497 124.2783 242° Southwest  Level Estimated
Thu 08:31:00 AM 43.5046 124.1642 241° Southwest  Level Estimated
Thu 08:32:00 AM 43.4593 124.0502 241° Southwest  Level Estimated
Thu 08:33:00 AM 43.4140 123.9364 241° Southwest  Level Estimated
Thu 08:34:00 AM 43.3736 123.8356 241° Southwest  Level Estimated
Thu 08:35:00 AM 43.3332 123.7348 241° Southwest  Level Estimated
Thu 08:36:00 AM 43.2926 123.6343 241° Southwest  Level Estimated
Thu 08:37:00 AM 43.2520 123.5338 241° Southwest  Level Estimated
Thu 08:38:00 AM 43.2113 123.4335 241° Southwest  Level Estimated
Thu 08:39:00 AM 43.1705 123.3333 241° Southwest  Level Estimated
Thu 08:40:00 AM 43.1297 123.2333 241° Southwest  Level Estimated
Thu 08:41:00 AM 43.0887 123.1333 241° Southwest  Level Estimated
Thu 08:42:00 AM 43.0476 123.0336 241° Southwest  Level Estimated
Thu 08:43:00 AM 43.0065 122.9339 241° Southwest  Level Estimated
Thu 08:44:00 AM 42.9653 122.8344 241° Southwest  Level Estimated
Thu 08:45:00 AM 42.9240 122.7350 240° Southwest  Level Estimated
Thu 08:46:00 AM 42.8826 122.6358 240° Southwest  Level Estimated
Thu 08:47:00 AM 42.8411 122.5367 240° Southwest  Level Estimated
Thu 08:48:00 AM 42.7995 122.4377 240° Southwest  Level Estimated
Thu 08:49:00 AM 42.7579 122.3388 240° Southwest  Level Estimated
Thu 08:50:00 AM 42.7161 122.2401 240° Southwest  Level Estimated
Thu 08:51:00 AM 42.6743 122.1415 240° Southwest  Level Estimated
Thu 08:52:00 AM 42.6324 122.0431 240° Southwest  Level Estimated
Thu 08:53:00 AM 42.5904 121.9447 240° Southwest  Level Estimated
Thu 08:54:00 AM 42.5483 121.8466 240° Southwest  Level Estimated
Thu 08:55:00 AM 42.5062 121.7485 240° Southwest  Level Estimated
Thu 08:56:00 AM 42.4639 121.6506 240° Southwest  Level Estimated
Thu 08:57:00 AM 42.4216 121.5528 240° Southwest  Level Estimated
Thu 08:58:00 AM 42.3792 121.4551 240° Southwest  Level Estimated
Thu 08:59:00 AM 42.3367 121.3576 240° Southwest  Level Estimated
Thu 09:00:00 AM 42.2942 121.2602 239° Southwest  Level Estimated
Thu 09:01:00 AM 42.2515 121.1630 239° Southwest  Level Estimated
Thu 09:02:00 AM 42.2088 121.0658 239° Southwest  Level Estimated
Thu 09:03:00 AM 42.1659 120.9688 239° Southwest  Level Estimated
Thu 09:04:00 AM 42.1230 120.8720 239° Southwest  Level Estimated
Thu 09:05:00 AM 42.0801 120.7752 239° Southwest  Level Estimated
Thu 09:06:00 AM 42.0370 120.6786 239° Southwest  Level Estimated
Thu 09:07:00 AM 41.9938 120.5822 239° Southwest  Level Estimated
Thu 09:08:00 AM 41.9506 120.4858 239° Southwest  Level Estimated
Thu 09:09:00 AM 41.9073 120.3896 239° Southwest  Level Estimated
Thu 09:10:00 AM 41.8639 120.2935 239° Southwest  Level Estimated
Thu 09:11:00 AM 41.8205 120.1976 239° Southwest  Level Estimated
Thu 09:12:00 AM 41.7769 120.1018 239° Southwest  Level Estimated
Thu 09:13:00 AM 41.7333 120.0061 239° Southwest  Level Estimated
Thu 09:13:21 AM 41.3715 118.3799 249° West 437 503 25,400  Level FlightAware ADS-B
Thu 09:13:55 AM 41.3427 118.3090 240° Southwest 415 478 24,900 -885 Descending FlightAware ADS-B
Thu 09:14:22 AM 41.3162 118.2498 240° Southwest 403 464 24,500 -885 Descending FlightAware ADS-B
Thu 09:14:56 AM 41.2816 118.1720 240° Southwest 396 456 24,000 -938 Descending FlightAware ADS-B
Thu 09:15:26 AM 41.2531 118.1077 240° Southwest 396 456 23,500 -1,034 Descending FlightAware ADS-B
Thu 09:15:54 AM 41.2291 118.0537 240° Southwest 394 453 23,000 -1,000 Descending FlightAware ADS-B
Thu 09:16:26 AM 41.1975 117.9827 240° Southwest 392 451 22,500 -871 Descending FlightAware ADS-B
Thu 09:16:56 AM 41.1726 117.9271 240° Southwest 391 450 22,100 -885 Descending FlightAware ADS-B
Thu 09:17:27 AM 41.1432 117.8614 240° Southwest 386 444 21,600 -1,015 Descending FlightAware ADS-B
Thu 09:18:01 AM 41.1104 117.7884 240° Southwest 381 438 21,000 -923 Descending FlightAware ADS-B
Thu 09:18:32 AM 41.0861 117.7342 240° Southwest 377 434 20,600 -1,345 Descending FlightAware ADS-B
Thu 09:18:59 AM 41.0588 117.6734 240° Southwest 379 436 19,700 -3,051 Descending FlightAware ADS-B
Thu 09:19:31 AM 41.0285 117.6063 240° Southwest 396 456 17,600 -3,484 Descending FlightAware ADS-B
Thu 09:20:01 AM 41.0036 117.5513 240° Southwest 401 461 16,100 -3,000 Descending FlightAware ADS-B
Thu 09:20:31 AM 40.9722 117.4822 240° Southwest 398 458 14,600 -2,852 Descending FlightAware ADS-B
Thu 09:21:02 AM 40.9430 117.4185 239° Southwest 392 451 13,200 -2,400 Descending FlightAware ADS-B
Thu 09:21:26 AM 40.9210 117.3703 239° Southwest 380 437 12,400 -1,400 Descending FlightAware ADS-B
Thu 09:22:02 AM 40.8884 117.2988 240° Southwest 381 438 11,800 -545 Descending FlightAware ADS-B
Thu 09:22:32 AM 40.8657 117.2490 239° Southwest 380 437 11,800  Level FlightAware ADS-B
Thu 09:23:01 AM 40.8341 117.1800 239° Southwest 378 435 11,800  Level FlightAware ADS-B
Thu 09:23:31 AM 40.8070 117.1209 239° Southwest 375 432 11,800  Level FlightAware ADS-B
Thu 09:24:01 AM 40.7794 117.0607 239° Southwest 380 437 11,800  Level FlightAware ADS-B
Thu 09:24:31 AM 40.7600 117.0186 239° Southwest 379 436 11,800  Level FlightAware ADS-B
Thu 09:25:00 AM 40.7180 116.9691 239° Southwest 379 436 11,800  Level FlightAware ADS-B
Thu 09:25:06 AM 40.7008 116.9586 205° Southwest 388 447 11,800  Level FlightAware ADS-B
Thu 09:26:41 AM 40.5441 116.8702 204° Southwest 384 442 11,800  Level FlightAware ADS-B
Thu 09:27:12 AM 40.4961 116.8430 204° Southwest 382 440 11,800 -400 Level FlightAware ADS-B
Thu 09:27:41 AM 40.4497 116.8167 204° Southwest 361 415 11,400 -900 Descending FlightAware ADS-B
Thu 09:28:12 AM 40.4020 116.7897 204° Southwest 341 392 10,900 -800 Descending FlightAware ADS-B
Thu 09:28:41 AM 40.3631 116.7678 204° Southwest 318 366 10,600 -1,017 Descending FlightAware ADS-B
Thu 09:29:11 AM 40.3194 116.7498 185° South 311 358 9,900 -1,395 Descending FlightAware ADS-B
Thu 09:29:24 AM 40.3042 116.7496 178° South 311 358 9,600 -1,400 Descending FlightAware ADS-B
Thu 09:29:41 AM 40.2769 116.7509 177° South 307 353 9,200 -649 Descending FlightAware ADS-B
Thu 09:30:01 AM 40.2487 116.7527 177° South 306 352 9,200  Level FlightAware ADS-B
Thu 09:30:21 AM 40.2199 116.7546 177° South 308 354 9,200  Level FlightAware ADS-B
Thu 09:30:41 AM 40.1935 116.7561 177° South 305 351 9,200 -150 Level FlightAware ADS-B
Thu 09:31:01 AM 40.1638 116.7578 177° South 301 346 9,100 -833 Descending FlightAware ADS-B
Thu 09:31:17 AM 40.1431 116.7590 177° South 300 345 8,700 -1,548 Descending FlightAware ADS-B
Thu 09:31:32 AM 40.1212 116.7601 177° South 298 343 8,300 -1,655 Descending FlightAware ADS-B
Thu 09:31:46 AM 40.1006 116.7613 177° South 297 342 7,900 -1,600 Descending FlightAware ADS-B
Thu 09:32:02 AM 40.0821 116.7623 177° South 297 342 7,500 -1,742 Descending FlightAware ADS-B
Thu 09:32:17 AM 40.0591 116.7633 178° South 295 339 7,000 -2,000 Descending FlightAware ADS-B
Thu 09:32:32 AM 40.0389 116.7642 178° South 292 336 6,500 -2,276 Descending FlightAware ADS-B
Thu 09:32:46 AM 40.0198 116.7650 178° South 291 335 5,900 -2,400 Descending FlightAware ADS-B
Thu 09:33:02 AM 39.9988 116.7661 177° South 290 334 5,300 -1,742 Descending FlightAware ADS-B
Thu 09:33:17 AM 39.9790 116.7670 177° South 277 319 5,000 -1,034 Descending FlightAware ADS-B
Thu 09:33:31 AM 39.9598 116.7680 177° South 263 303 4,800 -828 Descending FlightAware ADS-B
Thu 09:33:46 AM 39.9418 116.7690 177° South 257 296 4,600 -968 Descending FlightAware ADS-B
Thu 09:34:02 AM 39.9273 116.7698 177° South 257 296 4,300 -1,400 Descending FlightAware ADS-B
Thu 09:34:16 AM 39.9091 116.7708 177° South 260 299 3,900 -1,448 Descending FlightAware ADS-B
Thu 09:34:31 AM 39.8910 116.7718 177° South 260 299 3,600 -1,200 Descending FlightAware ADS-B
Thu 09:34:46 AM 39.8720 116.7727 177° South 254 292 3,300 -514 Descending FlightAware ADS-B
Thu 09:35:06 AM 39.8481 116.7739 177° South 241 277 3,300  Level FlightAware ADS-B
Thu 09:35:26 AM 39.8263 116.7764 173° South 221 254 3,300  Level FlightAware ADS-B
Thu 09:35:47 AM 39.8058 116.7796 173° South 215 247 3,300  Level FlightAware ADS-B
Thu 09:36:06 AM 39.7863 116.7825 173° South 215 247 3,300  Level FlightAware ADS-B
Thu 09:36:26 AM 39.7665 116.7855 173° South 214 246 3,300  Level FlightAware ADS-B
Thu 09:36:46 AM 39.7467 116.7886 172° South 212 244 3,300  Level FlightAware ADS-B
Thu 09:37:01 AM 39.7322 116.7893 189° South 213 245 3,300  Level FlightAware ADS-B
Thu 09:37:06 AM 39.7276 116.7877 200° South 211 243 3,300  Level FlightAware ADS-B
Thu 09:37:11 AM 39.7231 116.7848 212° Southwest 210 242 3,300  Level FlightAware ADS-B
Thu 09:37:16 AM 39.7194 116.7809 224° Southwest 208 239 3,300  Level FlightAware ADS-B
Thu 09:37:21 AM 39.7164 116.7763 236° Southwest 206 237 3,300  Level FlightAware ADS-B
Thu 09:37:26 AM 39.7140 116.7708 243° Southwest 204 235 3,300  Level FlightAware ADS-B
Thu 09:37:31 AM 39.7126 116.7650 256° West 201 231 3,300  Level FlightAware ADS-B
Thu 09:37:52 AM 39.7093 116.7415 262° West 192 221 3,300  Level FlightAware ADS-B
Thu 09:38:05 AM 39.7078 116.7261 267° West 189 217 3,300  Level FlightAware ADS-B
Thu 09:38:11 AM 39.7082 116.7195 277° West 188 216 3,300  Level FlightAware ADS-B
Thu 09:38:22 AM 39.7121 116.7090 308° West 186 214 3,300  Level FlightAware ADS-B
Thu 09:38:27 AM 39.7142 116.7058 316° Northwest 185 213 3,300  Level FlightAware ADS-B
Thu 09:38:32 AM 39.7176 116.7020 321° Northwest 186 214 3,300  Level FlightAware ADS-B
Thu 09:38:47 AM 39.7286 116.6911 325° Northwest 186 214 3,300  Level FlightAware ADS-B
Thu 09:39:06 AM 39.7427 116.6781 325° Northwest 184 212 3,300  Level FlightAware ADS-B
Thu 09:39:21 AM 39.7531 116.6692 328° Northwest 183 211 3,300  Level FlightAware ADS-B
Thu 09:39:26 AM 39.7561 116.6674 340° North 184 212 3,300  Level FlightAware ADS-B
Thu 09:39:31 AM 39.7610 116.6653 346° North 184 212 3,300  Level FlightAware ADS-B
Thu 09:39:57 AM 39.7824 116.6607 352° North 183 211 3,300  Level FlightAware ADS-B
Thu 09:40:17 AM 39.7991 116.6581 354° North 184 212 3,300  Level FlightAware ADS-B
Thu 09:40:36 AM 39.8157 116.6556 354° North 183 211 3,300  Level FlightAware ADS-B
Thu 09:40:52 AM 39.8303 116.6533 354° North 184 212 3,300  Level FlightAware ADS-B
Thu 09:41:16 AM 39.8503 116.6501 353° North 180 207 3,300  Level FlightAware ADS-B
Thu 09:41:37 AM 39.8668 116.6476 354° North 179 206 3,300  Level FlightAware ADS-B
Thu 09:41:57 AM 39.8833 116.6451 354° North 180 207 3,300  Level FlightAware ADS-B
Thu 09:42:16 AM 39.8994 116.6425 353° North 169 194 3,300 -353 Level FlightAware ADS-B
Thu 09:42:31 AM 39.9100 116.6408 354° North 163 188 3,100 -800 Descending FlightAware ADS-B
Thu 09:42:46 AM 39.9219 116.6390 354° North 159 183 2,900 -800 Descending FlightAware ADS-B
Thu 09:43:01 AM 39.9326 116.6374 354° North 150 173 2,700 -800 Descending FlightAware ADS-B
Thu 09:45:00 AM 40.0801 116.5846 345° North  Level Estimated
Thu 09:46:00 AM 40.0801 116.5846 North  Level Estimated

Login

Don't have an account? Register now (free) for customized features, flight alerts, and more!